sensor_id;sensor_type;location;lat;lon;timestamp;P1;durP1;ratioP1;P2;durP2;ratioP2
41653;SDS011;30790;52.030;7.110;2022-11-21T00:00:21;9.10;;;3.70;;
41653;SDS011;30790;52.030;7.110;2022-11-21T00:02:48;4.97;;;3.42;;
41653;SDS011;30790;52.030;7.110;2022-11-21T00:05:13;6.85;;;3.42;;
41653;SDS011;30790;52.030;7.110;2022-11-21T00:07:38;6.60;;;3.50;;
41653;SDS011;30790;52.030;7.110;2022-11-21T00:10:03;6.00;;;3.40;;
41653;SDS011;30790;52.030;7.110;2022-11-21T00:12:29;6.57;;;2.90;;
41653;SDS011;30790;52.030;7.110;2022-11-21T00:14:55;5.00;;;3.20;;
41653;SDS011;30790;52.030;7.110;2022-11-21T00:17:20;8.43;;;3.63;;
41653;SDS011;30790;52.030;7.110;2022-11-21T00:19:45;6.28;;;3.50;;
41653;SDS011;30790;52.030;7.110;2022-11-21T00:22:10;7.47;;;3.73;;
41653;SDS011;30790;52.030;7.110;2022-11-21T00:24:36;4.20;;;3.00;;
41653;SDS011;30790;52.030;7.110;2022-11-21T00:27:01;4.95;;;3.05;;
41653;SDS011;30790;52.030;7.110;2022-11-21T00:29:26;6.90;;;3.40;;
41653;SDS011;30790;52.030;7.110;2022-11-21T00:31:52;5.57;;;2.60;;
41653;SDS011;30790;52.030;7.110;2022-11-21T00:34:17;4.80;;;3.15;;
41653;SDS011;30790;52.030;7.110;2022-11-21T00:36:43;3.65;;;2.83;;
41653;SDS011;30790;52.030;7.110;2022-11-21T00:39:08;7.70;;;3.67;;
41653;SDS011;30790;52.030;7.110;2022-11-21T00:41:33;6.30;;;3.55;;
41653;SDS011;30790;52.030;7.110;2022-11-21T00:43:58;4.82;;;3.35;;
41653;SDS011;30790;52.030;7.110;2022-11-21T00:46:24;5.18;;;3.20;;
41653;SDS011;30790;52.030;7.110;2022-11-21T00:48:49;6.78;;;3.10;;
41653;SDS011;30790;52.030;7.110;2022-11-21T00:51:14;4.73;;;3.27;;
41653;SDS011;30790;52.030;7.110;2022-11-21T00:53:40;5.45;;;3.42;;
41653;SDS011;30790;52.030;7.110;2022-11-21T00:56:05;5.30;;;3.13;;
41653;SDS011;30790;52.030;7.110;2022-11-21T00:58:30;5.43;;;3.00;;
41653;SDS011;30790;52.030;7.110;2022-11-21T01:01:09;3.58;;;2.88;;
41653;SDS011;30790;52.030;7.110;2022-11-21T01:03:36;7.75;;;3.20;;
41653;SDS011;30790;52.030;7.110;2022-11-21T01:06:02;4.22;;;3.08;;
41653;SDS011;30790;52.030;7.110;2022-11-21T01:08:29;7.30;;;3.30;;
41653;SDS011;30790;52.030;7.110;2022-11-21T01:10:54;5.70;;;3.13;;
41653;SDS011;30790;52.030;7.110;2022-11-21T01:13:20;5.35;;;3.50;;
41653;SDS011;30790;52.030;7.110;2022-11-21T01:15:45;3.13;;;2.60;;
41653;SDS011;30790;52.030;7.110;2022-11-21T01:18:10;5.05;;;3.05;;
41653;SDS011;30790;52.030;7.110;2022-11-21T01:20:38;4.53;;;2.90;;
41653;SDS011;30790;52.030;7.110;2022-11-21T01:23:04;4.38;;;3.03;;
41653;SDS011;30790;52.030;7.110;2022-11-21T01:25:32;4.22;;;2.83;;
41653;SDS011;30790;52.030;7.110;2022-11-21T01:27:58;7.22;;;3.13;;
41653;SDS011;30790;52.030;7.110;2022-11-21T01:30:23;5.65;;;3.78;;
41653;SDS011;30790;52.030;7.110;2022-11-21T01:32:48;5.00;;;3.28;;
41653;SDS011;30790;52.030;7.110;2022-11-21T01:35:14;3.35;;;2.67;;
41653;SDS011;30790;52.030;7.110;2022-11-21T01:37:39;5.32;;;2.38;;
41653;SDS011;30790;52.030;7.110;2022-11-21T01:40:05;4.78;;;3.00;;
41653;SDS011;30790;52.030;7.110;2022-11-21T01:42:42;5.95;;;3.03;;
41653;SDS011;30790;52.030;7.110;2022-11-21T01:48:20;5.55;;;3.08;;
41653;SDS011;30790;52.030;7.110;2022-11-21T01:50:50;4.47;;;3.08;;
41653;SDS011;30790;52.030;7.110;2022-11-21T01:53:15;3.75;;;3.10;;
41653;SDS011;30790;52.030;7.110;2022-11-21T01:55:41;9.88;;;3.47;;
41653;SDS011;30790;52.030;7.110;2022-11-21T01:58:07;4.53;;;2.90;;
41653;SDS011;30790;52.030;7.110;2022-11-21T02:00:34;7.40;;;3.10;;
41653;SDS011;30790;52.030;7.110;2022-11-21T02:03:03;4.13;;;3.15;;
41653;SDS011;30790;52.030;7.110;2022-11-21T02:05:34;3.47;;;2.70;;
41653;SDS011;30790;52.030;7.110;2022-11-21T02:08:02;5.05;;;2.80;;
41653;SDS011;30790;52.030;7.110;2022-11-21T02:10:31;3.50;;;2.75;;
41653;SDS011;30790;52.030;7.110;2022-11-21T02:12:58;5.88;;;3.25;;
41653;SDS011;30790;52.030;7.110;2022-11-21T02:15:25;4.47;;;2.80;;
41653;SDS011;30790;52.030;7.110;2022-11-21T02:17:52;3.53;;;2.92;;
41653;SDS011;30790;52.030;7.110;2022-11-21T02:20:18;3.20;;;2.83;;
41653;SDS011;30790;52.030;7.110;2022-11-21T02:25:26;3.33;;;2.47;;
41653;SDS011;30790;52.030;7.110;2022-11-21T02:27:56;2.85;;;2.42;;
41653;SDS011;30790;52.030;7.110;2022-11-21T02:30:23;3.13;;;2.50;;
41653;SDS011;30790;52.030;7.110;2022-11-21T02:32:51;3.45;;;2.88;;
41653;SDS011;30790;52.030;7.110;2022-11-21T02:35:17;3.10;;;2.80;;
41653;SDS011;30790;52.030;7.110;2022-11-21T02:37:43;4.15;;;3.10;;
41653;SDS011;30790;52.030;7.110;2022-11-21T02:40:15;4.32;;;2.85;;
41653;SDS011;30790;52.030;7.110;2022-11-21T02:45:33;3.92;;;2.90;;
41653;SDS011;30790;52.030;7.110;2022-11-21T02:48:02;4.10;;;2.83;;
41653;SDS011;30790;52.030;7.110;2022-11-21T02:50:28;6.47;;;2.85;;
41653;SDS011;30790;52.030;7.110;2022-11-21T02:52:55;4.55;;;3.33;;
41653;SDS011;30790;52.030;7.110;2022-11-21T02:55:22;3.17;;;2.70;;
41653;SDS011;30790;52.030;7.110;2022-11-21T02:57:48;3.40;;;2.60;;
41653;SDS011;30790;52.030;7.110;2022-11-21T03:00:13;4.43;;;3.00;;
41653;SDS011;30790;52.030;7.110;2022-11-21T03:02:38;3.47;;;2.72;;
41653;SDS011;30790;52.030;7.110;2022-11-21T03:05:04;4.32;;;3.20;;
41653;SDS011;30790;52.030;7.110;2022-11-21T03:07:31;3.83;;;2.97;;
41653;SDS011;30790;52.030;7.110;2022-11-21T03:09:57;3.97;;;2.78;;
41653;SDS011;30790;52.030;7.110;2022-11-21T03:12:22;3.15;;;2.35;;
41653;SDS011;30790;52.030;7.110;2022-11-21T03:14:47;3.60;;;3.05;;
41653;SDS011;30790;52.030;7.110;2022-11-21T03:17:12;4.20;;;3.13;;
41653;SDS011;30790;52.030;7.110;2022-11-21T03:19:38;3.30;;;2.70;;
41653;SDS011;30790;52.030;7.110;2022-11-21T03:22:03;3.20;;;2.90;;
41653;SDS011;30790;52.030;7.110;2022-11-21T03:24:28;2.75;;;2.55;;
41653;SDS011;30790;52.030;7.110;2022-11-21T03:26:54;3.85;;;3.00;;
41653;SDS011;30790;52.030;7.110;2022-11-21T03:29:19;3.58;;;2.90;;
41653;SDS011;30790;52.030;7.110;2022-11-21T03:31:44;3.42;;;2.38;;
41653;SDS011;30790;52.030;7.110;2022-11-21T03:34:09;3.78;;;2.95;;
41653;SDS011;30790;52.030;7.110;2022-11-21T03:36:35;3.95;;;2.47;;
41653;SDS011;30790;52.030;7.110;2022-11-21T03:39:00;3.53;;;2.65;;
41653;SDS011;30790;52.030;7.110;2022-11-21T03:41:26;3.50;;;2.95;;
41653;SDS011;30790;52.030;7.110;2022-11-21T03:43:55;4.38;;;3.03;;
41653;SDS011;30790;52.030;7.110;2022-11-21T03:46:20;6.50;;;3.50;;
41653;SDS011;30790;52.030;7.110;2022-11-21T03:48:45;3.22;;;2.67;;
41653;SDS011;30790;52.030;7.110;2022-11-21T03:51:10;3.15;;;2.50;;
41653;SDS011;30790;52.030;7.110;2022-11-21T03:53:36;3.17;;;2.72;;
41653;SDS011;30790;52.030;7.110;2022-11-21T03:56:01;5.47;;;2.70;;
41653;SDS011;30790;52.030;7.110;2022-11-21T03:58:26;2.67;;;2.47;;
41653;SDS011;30790;52.030;7.110;2022-11-21T04:00:51;3.60;;;2.70;;
41653;SDS011;30790;52.030;7.110;2022-11-21T04:03:17;2.75;;;2.33;;
41653;SDS011;30790;52.030;7.110;2022-11-21T04:05:45;3.50;;;3.05;;
41653;SDS011;30790;52.030;7.110;2022-11-21T04:08:10;3.63;;;2.67;;
41653;SDS011;30790;52.030;7.110;2022-11-21T04:10:36;3.20;;;2.72;;
41653;SDS011;30790;52.030;7.110;2022-11-21T04:13:01;3.35;;;2.80;;
41653;SDS011;30790;52.030;7.110;2022-11-21T04:15:26;3.72;;;3.00;;
41653;SDS011;30790;52.030;7.110;2022-11-21T04:17:52;5.40;;;2.67;;
41653;SDS011;30790;52.030;7.110;2022-11-21T04:20:17;3.20;;;2.73;;
41653;SDS011;30790;52.030;7.110;2022-11-21T04:22:42;3.85;;;3.03;;
41653;SDS011;30790;52.030;7.110;2022-11-21T04:25:08;3.47;;;2.47;;
41653;SDS011;30790;52.030;7.110;2022-11-21T04:27:33;3.55;;;2.58;;
41653;SDS011;30790;52.030;7.110;2022-11-21T04:29:58;3.92;;;2.55;;
41653;SDS011;30790;52.030;7.110;2022-11-21T04:32:23;2.72;;;2.40;;
41653;SDS011;30790;52.030;7.110;2022-11-21T04:34:49;4.43;;;2.60;;
41653;SDS011;30790;52.030;7.110;2022-11-21T04:37:14;3.40;;;2.40;;
41653;SDS011;30790;52.030;7.110;2022-11-21T04:39:39;3.13;;;2.53;;
41653;SDS011;30790;52.030;7.110;2022-11-21T04:42:05;4.80;;;2.67;;
41653;SDS011;30790;52.030;7.110;2022-11-21T04:44:30;2.72;;;2.53;;
41653;SDS011;30790;52.030;7.110;2022-11-21T04:46:55;3.75;;;2.55;;
41653;SDS011;30790;52.030;7.110;2022-11-21T04:49:20;3.63;;;2.78;;
41653;SDS011;30790;52.030;7.110;2022-11-21T04:51:46;2.90;;;2.30;;
41653;SDS011;30790;52.030;7.110;2022-11-21T04:54:11;3.55;;;2.53;;
41653;SDS011;30790;52.030;7.110;2022-11-21T04:56:36;2.65;;;2.40;;
41653;SDS011;30790;52.030;7.110;2022-11-21T04:59:02;3.03;;;2.72;;
41653;SDS011;30790;52.030;7.110;2022-11-21T05:01:27;2.95;;;2.60;;
41653;SDS011;30790;52.030;7.110;2022-11-21T05:03:53;3.22;;;2.53;;
41653;SDS011;30790;52.030;7.110;2022-11-21T05:06:18;2.92;;;2.47;;
41653;SDS011;30790;52.030;7.110;2022-11-21T05:08:43;3.40;;;2.53;;
41653;SDS011;30790;52.030;7.110;2022-11-21T05:11:08;3.30;;;2.90;;
41653;SDS011;30790;52.030;7.110;2022-11-21T05:13:53;2.47;;;2.20;;
41653;SDS011;30790;52.030;7.110;2022-11-21T05:16:18;2.25;;;2.05;;
41653;SDS011;30790;52.030;7.110;2022-11-21T05:18:44;2.55;;;2.28;;
41653;SDS011;30790;52.030;7.110;2022-11-21T05:21:09;3.25;;;2.25;;
41653;SDS011;30790;52.030;7.110;2022-11-21T05:23:34;2.25;;;2.05;;
41653;SDS011;30790;52.030;7.110;2022-11-21T05:26:00;4.30;;;2.20;;
41653;SDS011;30790;52.030;7.110;2022-11-21T05:28:25;3.30;;;2.50;;
41653;SDS011;30790;52.030;7.110;2022-11-21T05:30:50;2.65;;;2.10;;
41653;SDS011;30790;52.030;7.110;2022-11-21T05:33:16;3.85;;;1.95;;
41653;SDS011;30790;52.030;7.110;2022-11-21T05:35:41;2.92;;;2.45;;
41653;SDS011;30790;52.030;7.110;2022-11-21T05:38:06;2.83;;;2.10;;
41653;SDS011;30790;52.030;7.110;2022-11-21T05:40:31;3.15;;;2.65;;
41653;SDS011;30790;52.030;7.110;2022-11-21T05:42:57;2.80;;;2.55;;
41653;SDS011;30790;52.030;7.110;2022-11-21T05:45:41;3.00;;;2.30;;
41653;SDS011;30790;52.030;7.110;2022-11-21T05:48:06;2.40;;;2.10;;
41653;SDS011;30790;52.030;7.110;2022-11-21T05:50:32;3.03;;;2.30;;
41653;SDS011;30790;52.030;7.110;2022-11-21T05:53:04;2.78;;;2.30;;
41653;SDS011;30790;52.030;7.110;2022-11-21T05:55:30;2.90;;;2.42;;
41653;SDS011;30790;52.030;7.110;2022-11-21T05:57:58;3.30;;;2.45;;
41653;SDS011;30790;52.030;7.110;2022-11-21T06:00:24;2.53;;;2.28;;
41653;SDS011;30790;52.030;7.110;2022-11-21T06:02:49;3.03;;;2.35;;
41653;SDS011;30790;52.030;7.110;2022-11-21T06:05:33;2.65;;;2.42;;
41653;SDS011;30790;52.030;7.110;2022-11-21T06:07:58;3.28;;;2.28;;
41653;SDS011;30790;52.030;7.110;2022-11-21T06:10:24;3.00;;;2.08;;
41653;SDS011;30790;52.030;7.110;2022-11-21T06:12:49;2.85;;;2.60;;
41653;SDS011;30790;52.030;7.110;2022-11-21T06:15:14;2.35;;;2.15;;
41653;SDS011;30790;52.030;7.110;2022-11-21T06:17:39;2.58;;;2.33;;
41653;SDS011;30790;52.030;7.110;2022-11-21T06:20:05;2.65;;;2.08;;
41653;SDS011;30790;52.030;7.110;2022-11-21T06:22:31;2.38;;;2.15;;
41653;SDS011;30790;52.030;7.110;2022-11-21T06:24:56;2.70;;;2.13;;
41653;SDS011;30790;52.030;7.110;2022-11-21T06:27:21;2.15;;;1.83;;
41653;SDS011;30790;52.030;7.110;2022-11-21T06:29:46;2.92;;;2.15;;
41653;SDS011;30790;52.030;7.110;2022-11-21T06:32:11;3.13;;;2.30;;
41653;SDS011;30790;52.030;7.110;2022-11-21T06:34:37;2.10;;;1.90;;
41653;SDS011;30790;52.030;7.110;2022-11-21T06:37:02;3.58;;;2.38;;
41653;SDS011;30790;52.030;7.110;2022-11-21T06:39:27;2.65;;;2.10;;
41653;SDS011;30790;52.030;7.110;2022-11-21T06:41:52;4.65;;;2.25;;
41653;SDS011;30790;52.030;7.110;2022-11-21T06:44:18;5.00;;;2.53;;
41653;SDS011;30790;52.030;7.110;2022-11-21T06:46:43;2.67;;;2.20;;
41653;SDS011;30790;52.030;7.110;2022-11-21T06:49:09;3.83;;;2.10;;
41653;SDS011;30790;52.030;7.110;2022-11-21T06:51:34;5.22;;;2.45;;
41653;SDS011;30790;52.030;7.110;2022-11-21T06:53:59;5.15;;;2.60;;
41653;SDS011;30790;52.030;7.110;2022-11-21T06:56:25;2.90;;;2.28;;
41653;SDS011;30790;52.030;7.110;2022-11-21T06:58:52;2.50;;;1.92;;
41653;SDS011;30790;52.030;7.110;2022-11-21T07:01:18;2.70;;;2.17;;
41653;SDS011;30790;52.030;7.110;2022-11-21T07:03:43;3.20;;;2.20;;
41653;SDS011;30790;52.030;7.110;2022-11-21T07:06:09;3.03;;;2.50;;
41653;SDS011;30790;52.030;7.110;2022-11-21T07:08:35;4.78;;;2.40;;
41653;SDS011;30790;52.030;7.110;2022-11-21T07:11:04;9.32;;;3.55;;
41653;SDS011;30790;52.030;7.110;2022-11-21T07:13:32;5.32;;;3.92;;
41653;SDS011;30790;52.030;7.110;2022-11-21T07:16:01;5.30;;;3.35;;
41653;SDS011;30790;52.030;7.110;2022-11-21T07:18:31;4.40;;;3.07;;
41653;SDS011;30790;52.030;7.110;2022-11-21T07:20:57;3.10;;;2.47;;
41653;SDS011;30790;52.030;7.110;2022-11-21T07:23:24;4.05;;;2.80;;
41653;SDS011;30790;52.030;7.110;2022-11-21T07:25:49;8.50;;;2.83;;
41653;SDS011;30790;52.030;7.110;2022-11-21T07:28:14;9.00;;;2.85;;
41653;SDS011;30790;52.030;7.110;2022-11-21T07:30:40;5.45;;;3.17;;
41653;SDS011;30790;52.030;7.110;2022-11-21T07:33:05;3.17;;;2.43;;
41653;SDS011;30790;52.030;7.110;2022-11-21T07:35:31;5.03;;;2.65;;
41653;SDS011;30790;52.030;7.110;2022-11-21T07:37:58;3.38;;;3.08;;
41653;SDS011;30790;52.030;7.110;2022-11-21T07:40:23;3.90;;;2.63;;
41653;SDS011;30790;52.030;7.110;2022-11-21T07:42:49;3.22;;;2.58;;
41653;SDS011;30790;52.030;7.110;2022-11-21T07:45:14;2.80;;;2.45;;
41653;SDS011;30790;52.030;7.110;2022-11-21T07:47:40;4.22;;;2.40;;
41653;SDS011;30790;52.030;7.110;2022-11-21T07:50:06;5.43;;;2.80;;
41653;SDS011;30790;52.030;7.110;2022-11-21T07:52:33;8.85;;;3.08;;
41653;SDS011;30790;52.030;7.110;2022-11-21T07:54:58;6.38;;;3.10;;
41653;SDS011;30790;52.030;7.110;2022-11-21T07:57:26;8.43;;;3.17;;
41653;SDS011;30790;52.030;7.110;2022-11-21T07:59:52;4.03;;;2.67;;
41653;SDS011;30790;52.030;7.110;2022-11-21T08:02:21;6.75;;;3.20;;
41653;SDS011;30790;52.030;7.110;2022-11-21T08:04:51;9.45;;;2.90;;
41653;SDS011;30790;52.030;7.110;2022-11-21T08:07:17;8.07;;;3.60;;
41653;SDS011;30790;52.030;7.110;2022-11-21T08:09:44;7.95;;;3.20;;
41653;SDS011;30790;52.030;7.110;2022-11-21T08:12:10;17.40;;;3.50;;
41653;SDS011;30790;52.030;7.110;2022-11-21T08:14:36;7.30;;;3.00;;
41653;SDS011;30790;52.030;7.110;2022-11-21T08:17:01;11.20;;;3.38;;
41653;SDS011;30790;52.030;7.110;2022-11-21T08:19:27;10.57;;;3.42;;
41653;SDS011;30790;52.030;7.110;2022-11-21T08:21:52;9.77;;;3.95;;
41653;SDS011;30790;52.030;7.110;2022-11-21T08:24:18;9.00;;;3.65;;
41653;SDS011;30790;52.030;7.110;2022-11-21T08:26:43;9.55;;;3.17;;
41653;SDS011;30790;52.030;7.110;2022-11-21T08:29:09;9.43;;;3.30;;
41653;SDS011;30790;52.030;7.110;2022-11-21T08:31:36;11.32;;;3.53;;
41653;SDS011;30790;52.030;7.110;2022-11-21T08:34:02;5.72;;;2.95;;
41653;SDS011;30790;52.030;7.110;2022-11-21T08:36:27;10.43;;;3.65;;
41653;SDS011;30790;52.030;7.110;2022-11-21T08:38:52;8.77;;;4.05;;
41653;SDS011;30790;52.030;7.110;2022-11-21T08:41:18;8.40;;;3.90;;
41653;SDS011;30790;52.030;7.110;2022-11-21T08:44:01;15.43;;;3.25;;
41653;SDS011;30790;52.030;7.110;2022-11-21T08:46:27;10.02;;;3.63;;
41653;SDS011;30790;52.030;7.110;2022-11-21T08:48:54;12.82;;;3.55;;
41653;SDS011;30790;52.030;7.110;2022-11-21T08:51:19;10.45;;;3.65;;
41653;SDS011;30790;52.030;7.110;2022-11-21T08:53:45;6.95;;;3.88;;
41653;SDS011;30790;52.030;7.110;2022-11-21T08:56:10;10.07;;;3.83;;
41653;SDS011;30790;52.030;7.110;2022-11-21T08:58:36;9.90;;;3.63;;
41653;SDS011;30790;52.030;7.110;2022-11-21T09:01:01;8.43;;;3.72;;
41653;SDS011;30790;52.030;7.110;2022-11-21T09:03:26;10.02;;;3.90;;
41653;SDS011;30790;52.030;7.110;2022-11-21T09:05:54;13.38;;;3.65;;
41653;SDS011;30790;52.030;7.110;2022-11-21T09:08:20;13.07;;;4.18;;
41653;SDS011;30790;52.030;7.110;2022-11-21T09:10:45;12.40;;;3.92;;
41653;SDS011;30790;52.030;7.110;2022-11-21T09:13:10;11.88;;;3.97;;
41653;SDS011;30790;52.030;7.110;2022-11-21T09:15:36;13.45;;;3.85;;
41653;SDS011;30790;52.030;7.110;2022-11-21T09:18:20;16.60;;;4.10;;
41653;SDS011;30790;52.030;7.110;2022-11-21T09:20:45;10.57;;;4.57;;
41653;SDS011;30790;52.030;7.110;2022-11-21T09:23:11;14.48;;;4.35;;
41653;SDS011;30790;52.030;7.110;2022-11-21T09:25:37;10.98;;;4.28;;
41653;SDS011;30790;52.030;7.110;2022-11-21T09:28:04;6.50;;;4.20;;
41653;SDS011;30790;52.030;7.110;2022-11-21T09:30:30;11.10;;;4.43;;
41653;SDS011;30790;52.030;7.110;2022-11-21T09:33:03;14.00;;;4.43;;
41653;SDS011;30790;52.030;7.110;2022-11-21T09:35:29;13.75;;;4.60;;
41653;SDS011;30790;52.030;7.110;2022-11-21T09:37:55;17.15;;;4.78;;
41653;SDS011;30790;52.030;7.110;2022-11-21T09:40:21;10.63;;;4.53;;
41653;SDS011;30790;52.030;7.110;2022-11-21T09:45:33;17.73;;;4.78;;
41653;SDS011;30790;52.030;7.110;2022-11-21T09:51:15;13.35;;;4.45;;
41653;SDS011;30790;52.030;7.110;2022-11-21T09:53:52;14.43;;;4.63;;
41653;SDS011;30790;52.030;7.110;2022-11-21T09:56:22;17.77;;;5.07;;
41653;SDS011;30790;52.030;7.110;2022-11-21T09:58:48;10.93;;;4.38;;
41653;SDS011;30790;52.030;7.110;2022-11-21T10:01:28;7.00;;;4.40;;
41653;SDS011;30790;52.030;7.110;2022-11-21T10:03:53;12.70;;;4.55;;
41653;SDS011;30790;52.030;7.110;2022-11-21T10:06:25;12.13;;;4.50;;
41653;SDS011;30790;52.030;7.110;2022-11-21T10:09:01;9.47;;;4.77;;
41653;SDS011;30790;52.030;7.110;2022-11-21T10:11:42;11.43;;;4.63;;
41653;SDS011;30790;52.030;7.110;2022-11-21T10:20:16;11.90;;;5.45;;
41653;SDS011;30790;52.030;7.110;2022-11-21T10:25:56;13.77;;;4.72;;
41653;SDS011;30790;52.030;7.110;2022-11-21T10:28:38;15.90;;;5.90;;
41653;SDS011;30790;52.030;7.110;2022-11-21T10:31:06;8.55;;;4.75;;
41653;SDS011;30790;52.030;7.110;2022-11-21T10:33:35;12.80;;;5.10;;
41653;SDS011;30790;52.030;7.110;2022-11-21T10:36:18;10.18;;;4.55;;
41653;SDS011;30790;52.030;7.110;2022-11-21T10:38:49;14.00;;;4.75;;
41653;SDS011;30790;52.030;7.110;2022-11-21T10:41:22;12.02;;;4.25;;
41653;SDS011;30790;52.030;7.110;2022-11-21T10:44:00;12.90;;;4.65;;
41653;SDS011;30790;52.030;7.110;2022-11-21T10:46:53;14.18;;;5.20;;
41653;SDS011;30790;52.030;7.110;2022-11-21T10:49:20;11.07;;;4.88;;
41653;SDS011;30790;52.030;7.110;2022-11-21T10:54:30;14.23;;;5.03;;
41653;SDS011;30790;52.030;7.110;2022-11-21T10:56:59;12.00;;;5.25;;
41653;SDS011;30790;52.030;7.110;2022-11-21T10:59:31;16.88;;;5.75;;
41653;SDS011;30790;52.030;7.110;2022-11-21T11:01:57;10.80;;;3.93;;
41653;SDS011;30790;52.030;7.110;2022-11-21T11:04:45;14.25;;;4.75;;
41653;SDS011;30790;52.030;7.110;2022-11-21T11:07:24;10.93;;;4.35;;
41653;SDS011;30790;52.030;7.110;2022-11-21T11:09:51;9.88;;;4.07;;
41653;SDS011;30790;52.030;7.110;2022-11-21T11:15:18;8.68;;;3.88;;
41653;SDS011;30790;52.030;7.110;2022-11-21T11:17:55;11.27;;;4.78;;
41653;SDS011;30790;52.030;7.110;2022-11-21T11:23:32;10.57;;;4.32;;
41653;SDS011;30790;52.030;7.110;2022-11-21T11:25:58;12.35;;;4.45;;
41653;SDS011;30790;52.030;7.110;2022-11-21T11:28:25;13.18;;;4.50;;
41653;SDS011;30790;52.030;7.110;2022-11-21T11:30:57;8.95;;;3.97;;
41653;SDS011;30790;52.030;7.110;2022-11-21T11:33:29;11.40;;;4.70;;
41653;SDS011;30790;52.030;7.110;2022-11-21T11:36:02;12.63;;;4.40;;
41653;SDS011;30790;52.030;7.110;2022-11-21T11:38:38;8.77;;;4.32;;
41653;SDS011;30790;52.030;7.110;2022-11-21T11:41:14;17.33;;;5.03;;
41653;SDS011;30790;52.030;7.110;2022-11-21T11:43:58;9.40;;;3.92;;
41653;SDS011;30790;52.030;7.110;2022-11-21T11:46:54;10.90;;;4.93;;
41653;SDS011;30790;52.030;7.110;2022-11-21T11:49:51;12.23;;;4.80;;
41653;SDS011;30790;52.030;7.110;2022-11-21T11:58:13;14.68;;;4.65;;
41653;SDS011;30790;52.030;7.110;2022-11-21T12:00:45;14.43;;;5.68;;
41653;SDS011;30790;52.030;7.110;2022-11-21T12:06:10;11.57;;;5.45;;
41653;SDS011;30790;52.030;7.110;2022-11-21T12:14:22;13.55;;;5.65;;
41653;SDS011;30790;52.030;7.110;2022-11-21T12:17:19;10.13;;;5.07;;
41653;SDS011;30790;52.030;7.110;2022-11-21T12:19:51;14.30;;;5.60;;
41653;SDS011;30790;52.030;7.110;2022-11-21T12:22:18;13.98;;;6.35;;
41653;SDS011;30790;52.030;7.110;2022-11-21T12:24:43;16.23;;;6.38;;
41653;SDS011;30790;52.030;7.110;2022-11-21T12:30:05;17.75;;;6.07;;
41653;SDS011;30790;52.030;7.110;2022-11-21T12:32:54;14.65;;;5.60;;
41653;SDS011;30790;52.030;7.110;2022-11-21T12:35:36;14.48;;;6.22;;
41653;SDS011;30790;52.030;7.110;2022-11-21T12:44:42;15.10;;;6.03;;
41653;SDS011;30790;52.030;7.110;2022-11-21T12:49:51;12.73;;;5.15;;
41653;SDS011;30790;52.030;7.110;2022-11-21T12:52:49;13.77;;;6.00;;
41653;SDS011;30790;52.030;7.110;2022-11-21T12:55:41;16.55;;;5.53;;
41653;SDS011;30790;52.030;7.110;2022-11-21T12:58:49;17.38;;;6.47;;
41653;SDS011;30790;52.030;7.110;2022-11-21T13:01:19;15.63;;;5.82;;
41653;SDS011;30790;52.030;7.110;2022-11-21T13:03:58;14.40;;;6.13;;
41653;SDS011;30790;52.030;7.110;2022-11-21T13:06:31;11.80;;;5.70;;
41653;SDS011;30790;52.030;7.110;2022-11-21T13:09:01;16.73;;;6.13;;
41653;SDS011;30790;52.030;7.110;2022-11-21T13:14:28;15.95;;;6.07;;
41653;SDS011;30790;52.030;7.110;2022-11-21T13:17:11;16.83;;;7.30;;
41653;SDS011;30790;52.030;7.110;2022-11-21T13:19:57;18.80;;;6.88;;
41653;SDS011;30790;52.030;7.110;2022-11-21T13:35:20;17.77;;;7.20;;
41653;SDS011;30790;52.030;7.110;2022-11-21T13:45:47;23.48;;;7.65;;
41653;SDS011;30790;52.030;7.110;2022-11-21T13:53:40;27.17;;;8.40;;
41653;SDS011;30790;52.030;7.110;2022-11-21T14:01:48;23.48;;;9.73;;
41653;SDS011;30790;52.030;7.110;2022-11-21T14:04:38;22.05;;;8.57;;
41653;SDS011;30790;52.030;7.110;2022-11-21T14:07:18;19.63;;;8.98;;
41653;SDS011;30790;52.030;7.110;2022-11-21T14:09:47;19.42;;;8.85;;
41653;SDS011;30790;52.030;7.110;2022-11-21T14:12:21;18.13;;;9.57;;
41653;SDS011;30790;52.030;7.110;2022-11-21T14:15:16;22.60;;;9.70;;
41653;SDS011;30790;52.030;7.110;2022-11-21T14:17:54;21.77;;;9.27;;
41653;SDS011;30790;52.030;7.110;2022-11-21T14:20:23;24.98;;;10.52;;
41653;SDS011;30790;52.030;7.110;2022-11-21T14:28:05;51.83;;;11.43;;
41653;SDS011;30790;52.030;7.110;2022-11-21T14:30:36;39.08;;;13.48;;
41653;SDS011;30790;52.030;7.110;2022-11-21T14:35:49;43.22;;;13.82;;
41653;SDS011;30790;52.030;7.110;2022-11-21T14:38:18;55.50;;;14.30;;
41653;SDS011;30790;52.030;7.110;2022-11-21T14:40:45;49.17;;;12.95;;
41653;SDS011;30790;52.030;7.110;2022-11-21T14:43:30;49.38;;;13.98;;
41653;SDS011;30790;52.030;7.110;2022-11-21T14:45:57;53.58;;;13.95;;
41653;SDS011;30790;52.030;7.110;2022-11-21T14:48:26;57.30;;;14.15;;
41653;SDS011;30790;52.030;7.110;2022-11-21T14:50:54;63.45;;;14.93;;
41653;SDS011;30790;52.030;7.110;2022-11-21T14:53:22;55.13;;;13.27;;
41653;SDS011;30790;52.030;7.110;2022-11-21T14:55:48;51.83;;;12.88;;
41653;SDS011;30790;52.030;7.110;2022-11-21T14:58:15;55.60;;;13.80;;
41653;SDS011;30790;52.030;7.110;2022-11-21T15:00:41;54.97;;;14.80;;
41653;SDS011;30790;52.030;7.110;2022-11-21T15:03:25;54.35;;;13.15;;
41653;SDS011;30790;52.030;7.110;2022-11-21T15:05:57;49.58;;;12.50;;
41653;SDS011;30790;52.030;7.110;2022-11-21T15:08:23;54.17;;;13.30;;
41653;SDS011;30790;52.030;7.110;2022-11-21T15:10:48;50.35;;;13.52;;
41653;SDS011;30790;52.030;7.110;2022-11-21T15:13:14;53.03;;;13.13;;
41653;SDS011;30790;52.030;7.110;2022-11-21T15:15:41;65.18;;;14.75;;
41653;SDS011;30790;52.030;7.110;2022-11-21T15:18:21;53.90;;;14.70;;
41653;SDS011;30790;52.030;7.110;2022-11-21T15:20:49;47.97;;;12.23;;
41653;SDS011;30790;52.030;7.110;2022-11-21T15:23:50;55.50;;;12.80;;
41653;SDS011;30790;52.030;7.110;2022-11-21T15:26:26;61.25;;;15.10;;
41653;SDS011;30790;52.030;7.110;2022-11-21T15:28:54;62.67;;;14.95;;
41653;SDS011;30790;52.030;7.110;2022-11-21T15:31:21;51.95;;;14.05;;
41653;SDS011;30790;52.030;7.110;2022-11-21T15:33:54;49.90;;;13.43;;
41653;SDS011;30790;52.030;7.110;2022-11-21T15:36:24;54.38;;;14.00;;
41653;SDS011;30790;52.030;7.110;2022-11-21T15:41:26;44.78;;;13.25;;
41653;SDS011;30790;52.030;7.110;2022-11-21T15:43:55;49.85;;;14.18;;
41653;SDS011;30790;52.030;7.110;2022-11-21T15:46:40;44.00;;;13.15;;
41653;SDS011;30790;52.030;7.110;2022-11-21T15:49:11;45.00;;;13.38;;
41653;SDS011;30790;52.030;7.110;2022-11-21T15:51:38;44.78;;;12.52;;
41653;SDS011;30790;52.030;7.110;2022-11-21T15:54:04;44.10;;;12.40;;
41653;SDS011;30790;52.030;7.110;2022-11-21T15:56:30;45.10;;;12.68;;
41653;SDS011;30790;52.030;7.110;2022-11-21T15:58:56;44.42;;;12.35;;
41653;SDS011;30790;52.030;7.110;2022-11-21T16:01:23;51.55;;;13.55;;
41653;SDS011;30790;52.030;7.110;2022-11-21T16:03:54;47.17;;;12.30;;
41653;SDS011;30790;52.030;7.110;2022-11-21T16:06:21;45.10;;;11.82;;
41653;SDS011;30790;52.030;7.110;2022-11-21T16:08:47;52.63;;;13.38;;
41653;SDS011;30790;52.030;7.110;2022-11-21T16:13:59;47.90;;;13.52;;
41653;SDS011;30790;52.030;7.110;2022-11-21T16:16:27;47.53;;;13.55;;
41653;SDS011;30790;52.030;7.110;2022-11-21T16:18:54;47.75;;;13.65;;
41653;SDS011;30790;52.030;7.110;2022-11-21T16:21:20;40.35;;;12.73;;
41653;SDS011;30790;52.030;7.110;2022-11-21T16:23:45;39.75;;;12.07;;
41653;SDS011;30790;52.030;7.110;2022-11-21T16:26:11;44.88;;;13.40;;
41653;SDS011;30790;52.030;7.110;2022-11-21T16:28:36;55.83;;;13.88;;
41653;SDS011;30790;52.030;7.110;2022-11-21T16:31:02;47.95;;;13.73;;
41653;SDS011;30790;52.030;7.110;2022-11-21T16:33:28;50.30;;;13.05;;
41653;SDS011;30790;52.030;7.110;2022-11-21T16:35:54;57.05;;;12.90;;